Aviation Digital Data Service (ADDS)

Output produced by METARs form (0428 UTC 26 May 2018)
found at http://www.aviationweather.gov/adds/metars/
 
TAF MSLP 260325Z 2606/2706 08006KT 7000 TSRA SCT023 FEW040CB BKN060 TX31/2618Z TN24/2612Z 
     FM261000 06006KT 9999 SCT023 
     FM261800 21010KT 9999 SCT023 FEW033CB 
     FM270000 VRB03KT 9999 FEW023 FEW040CB SCT070
       
TAF MSSS 260325Z 2606/2706 35005KT 5000 BR FEW010 TX29/2618Z TN21/2612Z 
     FM2716000 35006KT 9999 FEW023 
     FM261900 15004KT 9999 SCT023 FEW033CB